Time;durP1;ratioP1;P1;durP2;ratioP2;P2;SDS_P1;SDS_P2;PMS_P1;PMS_P2;Temp;Humidity;BMP_temperature;BMP_pressure;BME280_temperature;BME280_humidity;BME280_pressure;Samples;Min_cycle;Max_cycle;Signal;HPM_P1;HPM_P2
2021/12/18 00:00:58;;;;;;;9.40;3.15;;;;;;;6.67;100.00;104007.16;4881962;29;20062;-73
2021/12/18 00:03:23;;;;;;;9.55;4.35;;;;;;;6.68;100.00;104006.19;4878192;28;20709;-73
2021/12/18 00:05:49;;;;;;;11.52;3.75;;;;;;;6.67;100.00;104016.03;4890255;29;20035;-71
2021/12/18 00:08:14;;;;;;;11.80;3.85;;;;;;;6.74;100.00;104021.81;4870220;28;20066;-71
2021/12/18 00:10:40;;;;;;;11.05;4.20;;;;;;;6.82;100.00;104014.09;4887587;29;20042;-71
2021/12/18 00:13:05;;;;;;;9.63;4.30;;;;;;;6.76;100.00;104010.97;4869413;28;20498;-71
2021/12/18 00:15:30;;;;;;;9.00;3.72;;;;;;;6.70;100.00;104020.31;4882855;29;20146;-72
2021/12/18 00:17:56;;;;;;;9.02;2.95;;;;;;;6.68;100.00;104016.91;4891857;28;20092;-71
2021/12/18 00:20:24;;;;;;;5.85;2.80;;;;;;;6.69;100.00;104013.25;4855094;28;20055;-71
2021/12/18 00:22:50;;;;;;;7.50;3.13;;;;;;;6.68;100.00;104011.53;4887714;29;23169;-71
2021/12/18 00:25:15;;;;;;;6.97;2.85;;;;;;;6.62;100.00;104001.25;4880785;29;20138;-73
2021/12/18 00:27:40;;;;;;;9.27;3.15;;;;;;;6.64;100.00;103993.97;4877533;29;20051;-73
2021/12/18 00:30:08;;;;;;;12.43;3.83;;;;;;;6.54;100.00;104003.63;4887094;29;20054;-73
2021/12/18 00:32:33;;;;;;;10.15;3.38;;;;;;;6.54;100.00;104004.47;4874591;29;20055;-73
2021/12/18 00:34:59;;;;;;;11.23;3.95;;;;;;;6.54;100.00;104003.63;4888074;28;20196;-73
2021/12/18 00:37:24;;;;;;;9.60;3.80;;;;;;;6.56;100.00;104001.69;4882914;29;20031;-73
2021/12/18 00:39:58;;;;;;;12.70;3.58;;;;;;;6.50;100.00;104007.50;4860733;29;23608;-73
2021/12/18 00:42:48;;;;;;;11.82;3.95;;;;;;;6.44;100.00;103998.91;4873757;29;20049;-73
2021/12/18 00:45:16;;;;;;;13.00;3.50;;;;;;;6.48;100.00;104009.41;4859905;29;20166;-73
2021/12/18 00:47:42;;;;;;;15.60;3.35;;;;;;;6.41;100.00;104003.63;4887513;29;20489;-73
2021/12/18 00:50:12;;;;;;;11.32;3.47;;;;;;;6.40;100.00;104002.78;4885294;28;20051;-73
2021/12/18 00:52:38;;;;;;;11.65;3.53;;;;;;;6.45;100.00;104008.66;4886387;29;20313;-73
2021/12/18 00:55:04;;;;;;;9.35;2.53;;;;;;;6.40;100.00;103997.44;4857550;29;20038;-73
2021/12/18 00:57:30;;;;;;;13.38;2.80;;;;;;;6.34;100.00;103992.50;4856535;29;20051;-71
2021/12/18 01:00:01;;;;;;;13.57;3.33;;;;;;;6.34;100.00;103992.50;4888699;29;20069;-73
2021/12/18 01:02:28;;;;;;;13.43;3.55;;;;;;;6.35;100.00;103988.88;4880812;29;20370;-73
2021/12/18 01:04:54;;;;;;;21.75;5.35;;;;;;;6.30;100.00;103979.44;4872871;29;20031;-71
2021/12/18 01:07:20;;;;;;;30.27;7.57;;;;;;;6.38;100.00;103988.63;4889963;29;20071;-71
2021/12/18 01:10:31;;;;;;;16.17;5.07;;;;;;;6.34;100.00;103997.84;4874379;29;20070;-71
2021/12/18 01:12:41;;;;;;;14.23;4.10;;;;;;;6.39;100.00;103998.41;4884664;29;20047;-72
2021/12/18 01:23:01;;;;;;;29.92;5.85;;;;;;;6.33;100.00;104006.84;4877043;29;21073;-72
2021/12/18 01:25:27;;;;;;;17.63;4.45;;;;;;;6.41;100.00;104014.34;4869278;29;20522;-72
2021/12/18 01:27:52;;;;;;;24.35;5.90;;;;;;;6.40;100.00;104013.50;4873655;28;20055;-71
2021/12/18 01:30:19;;;;;;;21.42;6.45;;;;;;;6.33;100.00;104001.50;4887984;29;20031;-72
2021/12/18 01:32:45;;;;;;;27.08;7.95;;;;;;;6.38;100.00;103999.34;4882085;28;20043;-72
2021/12/18 01:35:10;;;;;;;15.30;5.60;;;;;;;6.40;100.00;104002.78;4879617;29;20058;-72
2021/12/18 01:37:36;;;;;;;8.23;3.17;;;;;;;6.36;100.00;104001.28;4869851;29;24594;-72
2021/12/18 01:40:03;;;;;;;11.55;3.90;;;;;;;6.34;100.00;104005.88;4871753;28;20059;-72
2021/12/18 01:52:40;;;;;;;9.65;3.70;;;;;;;6.24;100.00;104006.63;4853791;29;20090;-73
2021/12/18 01:55:06;;;;;;;12.13;4.25;;;;;;;6.18;100.00;104015.97;4851876;29;20035;-73
2021/12/18 01:57:32;;;;;;;9.93;3.55;;;;;;;6.20;100.00;104016.69;4873585;29;20082;-73
2021/12/18 01:59:58;;;;;;;10.65;3.65;;;;;;;6.21;100.00;104007.69;4872285;29;20038;-73
2021/12/18 02:02:24;;;;;;;13.13;3.80;;;;;;;6.17;100.00;104011.56;4871260;29;20122;-73
2021/12/18 02:04:49;;;;;;;13.48;3.80;;;;;;;6.21;100.00;104013.03;4874784;28;20048;-72
2021/12/18 02:07:15;;;;;;;15.82;4.55;;;;;;;6.17;100.00;104006.19;4885866;29;20054;-73
2021/12/18 02:12:10;;;;;;;16.63;4.75;;;;;;;6.25;100.00;104006.53;4890851;29;20090;-74
2021/12/18 02:20:38;;;;;;;26.08;5.90;;;;;;;6.24;100.00;104018.19;4877297;29;20173;-73
2021/12/18 02:23:04;;;;;;;38.60;6.07;;;;;;;6.21;100.00;104011.25;4875606;28;20059;-72
2021/12/18 02:25:33;;;;;;;20.17;5.53;;;;;;;6.25;100.00;104006.53;4897029;29;20773;-75
2021/12/18 02:27:58;;;;;;;18.08;4.38;;;;;;;6.26;100.00;104013.59;4872935;28;20051;-73
2021/12/18 02:30:25;;;;;;;19.00;4.57;;;;;;;6.23;100.00;104011.13;4873807;29;20040;-73
2021/12/18 02:32:51;;;;;;;16.52;4.38;;;;;;;6.25;100.00;104009.22;4890057;28;20034;-74
2021/12/18 02:35:27;;;;;;;16.08;4.18;;;;;;;6.27;100.00;104012.63;4826119;29;20043;-73
2021/12/18 02:38:25;;;;;;;15.05;3.92;;;;;;;6.20;100.00;104008.66;4871984;29;20042;-73
2021/12/18 02:41:13;;;;;;;13.75;3.45;;;;;;;6.23;100.00;104005.78;4875364;29;20711;-73
2021/12/18 02:43:40;;;;;;;20.17;5.18;;;;;;;6.29;100.00;104013.38;4877536;29;20499;-73
2021/12/18 02:46:08;;;;;;;18.15;4.50;;;;;;;6.21;100.00;104003.22;4876839;29;20060;-72
2021/12/18 02:48:39;;;;;;;14.82;3.85;;;;;;;6.22;100.00;104002.25;4891547;28;20045;-73
2021/12/18 02:51:08;;;;;;;18.38;4.60;;;;;;;6.30;100.00;104007.06;4891690;29;20070;-73
2021/12/18 02:53:35;;;;;;;18.17;5.80;;;;;;;6.23;100.00;104005.78;4880490;29;20056;-73
2021/12/18 02:56:04;;;;;;;17.15;4.43;;;;;;;6.33;100.00;104006.84;4891663;29;20038;-73
2021/12/18 02:58:30;;;;;;;17.42;5.40;;;;;;;6.31;100.00;104008.75;4877930;29;20059;-72
2021/12/18 03:00:57;;;;;;;15.02;4.65;;;;;;;6.31;100.00;104006.09;4892802;29;20155;-72
2021/12/18 03:03:29;;;;;;;13.02;3.38;;;;;;;6.26;100.00;103997.53;4871866;28;20059;-73
2021/12/18 03:06:07;;;;;;;16.73;5.28;;;;;;;6.25;100.00;104003.88;4880030;29;20439;-73
2021/12/18 03:08:44;;;;;;;16.63;4.00;;;;;;;6.23;100.00;104000.44;4873483;29;20598;-73
2021/12/18 03:22:40;;;;;;;19.70;5.03;;;;;;;6.19;100.00;103977.50;4883498;28;20130;-72
2021/12/18 03:27:21;;;;;;;16.13;4.90;;;;;;;6.25;100.00;103974.41;4869269;29;20035;-72
2021/12/18 03:29:46;;;;;;;17.25;5.05;;;;;;;6.18;100.00;103967.78;4874801;28;20058;-72
2021/12/18 03:32:12;;;;;;;15.93;4.13;;;;;;;6.21;100.00;103981.81;4888301;29;25320;-73
2021/12/18 03:34:37;;;;;;;13.68;3.67;;;;;;;6.20;100.00;103979.22;4841201;29;23560;-73
2021/12/18 03:37:04;;;;;;;13.05;3.20;;;;;;;6.21;100.00;103975.56;4887097;29;20039;-73
2021/12/18 03:39:29;;;;;;;9.52;3.00;;;;;;;6.20;100.00;103971.19;4871524;29;20042;-72
2021/12/18 03:41:55;;;;;;;10.32;2.95;;;;;;;6.26;100.00;103968.09;4870859;29;20086;-72
2021/12/18 03:44:21;;;;;;;17.40;4.55;;;;;;;6.23;100.00;103965.63;4887153;28;20039;-73
2021/12/18 03:46:47;;;;;;;16.60;5.80;;;;;;;6.21;100.00;103975.56;4877174;28;20062;-73
2021/12/18 03:49:12;;;;;;;19.92;5.10;;;;;;;6.19;100.00;103967.66;4854950;29;20503;-72
2021/12/18 03:51:38;;;;;;;12.80;3.92;;;;;;;6.21;100.00;103964.88;4872911;29;20046;-73
2021/12/18 03:54:03;;;;;;;16.70;4.70;;;;;;;6.20;100.00;103957.81;4855928;29;20051;-73
2021/12/18 03:56:29;;;;;;;18.90;4.80;;;;;;;6.19;100.00;103961.47;4871388;29;20036;-73
2021/12/18 03:58:55;;;;;;;14.20;4.28;;;;;;;6.26;100.00;103961.88;4881847;28;20142;-73
2021/12/18 04:01:20;;;;;;;16.65;5.20;;;;;;;6.22;100.00;103959.41;4844835;29;20138;-72
2021/12/18 04:03:46;;;;;;;13.10;5.65;;;;;;;6.20;100.00;103953.31;4871731;29;20035;-73
2021/12/18 04:06:11;;;;;;;19.92;5.97;;;;;;;6.21;100.00;103959.50;4856872;28;20158;-73
2021/12/18 04:08:37;;;;;;;15.88;5.65;;;;;;;6.18;100.00;103959.75;4852765;29;20035;-72
2021/12/18 04:11:02;;;;;;;13.98;5.13;;;;;;;6.18;100.00;103955.25;4866008;28;20048;-72
2021/12/18 04:13:28;;;;;;;12.50;4.60;;;;;;;6.25;100.00;103955.69;4860766;29;20568;-73
2021/12/18 04:15:53;;;;;;;12.27;5.40;;;;;;;6.26;100.00;103952.03;4854091;29;21484;-72
2021/12/18 04:18:19;;;;;;;15.05;5.18;;;;;;;6.31;100.00;103960.56;4857048;28;20131;-73
2021/12/18 04:20:44;;;;;;;14.27;4.72;;;;;;;6.28;100.00;103949.22;4869466;29;20044;-72
2021/12/18 04:23:09;;;;;;;12.70;4.75;;;;;;;6.27;100.00;103956.41;4879700;29;20165;-73
2021/12/18 04:25:35;;;;;;;18.58;5.53;;;;;;;6.29;100.00;103956.31;4860951;29;20151;-73
2021/12/18 04:28:00;;;;;;;12.63;5.10;;;;;;;6.30;100.00;103958.88;4869420;29;20046;-73
2021/12/18 04:30:26;;;;;;;13.90;5.30;;;;;;;6.29;100.00;103957.16;4854467;28;23643;-73
2021/12/18 04:32:51;;;;;;;13.07;4.30;;;;;;;6.34;100.00;103951.47;4881755;29;20093;-73
2021/12/18 04:35:17;;;;;;;15.65;4.53;;;;;;;6.32;100.00;103953.41;4864001;29;20166;-73
2021/12/18 04:37:43;;;;;;;14.52;4.95;;;;;;;6.35;100.00;103955.84;4859172;29;20147;-73
2021/12/18 04:40:09;;;;;;;22.63;5.35;;;;;;;6.35;100.00;103954.06;4867711;29;20265;-72
2021/12/18 04:42:34;;;;;;;21.40;7.53;;;;;;;6.37;100.00;103948.59;4854234;29;20051;-73
2021/12/18 04:45:00;;;;;;;27.27;8.15;;;;;;;6.39;100.00;103942.16;4870007;29;20043;-73
2021/12/18 04:47:25;;;;;;;19.95;7.00;;;;;;;6.37;100.00;103938.72;4878971;28;20040;-73
2021/12/18 04:49:51;;;;;;;16.50;6.32;;;;;;;6.39;100.00;103947.53;4854044;29;20163;-72
2021/12/18 04:52:16;;;;;;;12.35;5.10;;;;;;;6.39;100.00;103946.66;4869693;29;21019;-73
2021/12/18 04:54:41;;;;;;;16.67;5.93;;;;;;;6.44;100.00;103940.00;4853406;28;20051;-73
2021/12/18 04:57:07;;;;;;;20.35;6.05;;;;;;;6.50;100.00;103940.53;4867758;29;20063;-73
2021/12/18 04:59:32;;;;;;;22.77;6.82;;;;;;;6.53;100.00;103942.97;4862992;29;20163;-73
2021/12/18 05:01:58;;;;;;;26.42;7.15;;;;;;;6.52;100.00;103946.63;4859725;29;20530;-73
2021/12/18 05:04:23;;;;;;;18.95;6.15;;;;;;;6.55;100.00;103941.06;4881988;29;20039;-73
2021/12/18 05:06:51;;;;;;;17.58;6.45;;;;;;;6.54;100.00;103953.59;4855667;28;20052;-73
2021/12/18 05:09:17;;;;;;;19.30;7.32;;;;;;;6.55;100.00;103949.09;4871667;29;20126;-73
2021/12/18 05:11:43;;;;;;;30.30;9.07;;;;;;;6.60;100.00;103949.59;4865221;28;20055;-73
2021/12/18 05:14:10;;;;;;;25.95;9.23;;;;;;;6.56;100.00;103942.75;4875956;29;20063;-73
2021/12/18 05:16:35;;;;;;;30.30;10.63;;;;;;;6.64;100.00;103951.13;4851275;29;20040;-73
2021/12/18 05:19:02;;;;;;;32.83;10.73;;;;;;;6.71;100.00;103947.03;4851444;28;20059;-73
2021/12/18 05:21:27;;;;;;;30.85;10.05;;;;;;;6.78;100.00;103947.44;4870592;29;20115;-73
2021/12/18 05:23:53;;;;;;;40.97;10.52;;;;;;;6.80;100.00;103940.97;4859587;29;20956;-73
2021/12/18 05:26:19;;;;;;;29.73;9.55;;;;;;;6.87;100.00;103942.25;4860023;29;20078;-73
2021/12/18 05:28:45;;;;;;;27.17;8.07;;;;;;;6.90;100.00;103947.38;4884200;29;20038;-74
2021/12/18 05:31:13;;;;;;;29.58;10.73;;;;;;;6.94;100.00;103937.28;4856692;29;20155;-74
2021/12/18 05:33:39;;;;;;;38.28;11.77;;;;;;;6.91;100.00;103938.38;4869041;29;20039;-74
2021/12/18 05:36:23;;;;;;;59.60;17.67;;;;;;;6.98;100.00;103937.91;4861705;29;20126;-74
2021/12/18 05:38:49;;;;;;;67.95;17.75;;;;;;;6.93;100.00;103933.75;4860419;29;20064;-74
2021/12/18 05:41:14;;;;;;;45.58;15.45;;;;;;;7.02;100.00;103940.28;4883127;28;21342;-75
2021/12/18 05:43:40;;;;;;;44.30;13.82;;;;;;;7.00;100.00;103926.13;4855638;28;20174;-74
2021/12/18 05:46:05;;;;;;;48.78;16.48;;;;;;;7.03;100.00;103941.13;4865420;29;20116;-74
2021/12/18 05:48:30;;;;;;;49.90;15.32;;;;;;;7.07;100.00;103932.72;4860010;29;20055;-75
2021/12/18 05:50:56;;;;;;;41.00;14.65;;;;;;;7.17;100.00;103932.91;4875640;28;20102;-75
2021/12/18 05:53:21;;;;;;;43.90;14.95;;;;;;;7.18;100.00;103935.47;4868484;29;20193;-74
2021/12/18 05:55:47;;;;;;;52.10;16.35;;;;;;;7.07;100.00;103929.19;4857039;29;20055;-75
2021/12/18 05:58:12;;;;;;;63.55;18.42;;;;;;;7.10;100.00;103937.03;4886963;29;20047;-75
2021/12/18 06:00:39;;;;;;;51.90;16.77;;;;;;;7.09;100.00;103936.16;4882601;28;21767;-75
2021/12/18 06:03:04;;;;;;;43.80;13.98;;;;;;;7.07;100.00;103930.06;4874690;29;20050;-75
2021/12/18 06:05:30;;;;;;;35.30;11.35;;;;;;;7.06;100.00;103930.19;4847990;29;20976;-74
2021/12/18 06:07:57;;;;;;;49.92;13.98;;;;;;;7.13;100.00;103936.78;4869742;29;20055;-74
2021/12/18 06:10:25;;;;;;;41.97;14.52;;;;;;;7.20;100.00;103932.69;4868291;29;22785;-74
2021/12/18 06:12:51;;;;;;;53.72;16.58;;;;;;;7.19;100.00;103936.31;4880424;28;20046;-74
2021/12/18 06:15:17;;;;;;;46.90;16.60;;;;;;;7.20;100.00;103930.00;4877470;29;20178;-74
2021/12/18 06:17:42;;;;;;;64.30;19.02;;;;;;;7.22;100.00;103936.09;4891528;28;20058;-74
2021/12/18 06:20:09;;;;;;;47.55;15.77;;;;;;;7.22;100.00;103941.44;4853488;29;20063;-75
2021/12/18 06:22:34;;;;;;;48.45;14.65;;;;;;;7.26;100.00;103936.72;4853931;29;21360;-74
2021/12/18 06:25:00;;;;;;;43.97;13.38;;;;;;;7.31;100.00;103940.78;4884135;28;20051;-74
2021/12/18 06:27:25;;;;;;;34.97;12.32;;;;;;;7.33;100.00;103933.44;4876236;29;20783;-74
2021/12/18 06:29:51;;;;;;;42.53;13.75;;;;;;;7.43;100.00;103932.75;4868330;29;20038;-74
2021/12/18 06:32:16;;;;;;;43.35;15.10;;;;;;;7.39;100.00;103938.34;4872660;28;20064;-74
2021/12/18 06:34:42;;;;;;;41.95;15.27;;;;;;;7.38;100.00;103936.66;4887072;29;20035;-74
2021/12/18 06:37:07;;;;;;;49.72;16.10;;;;;;;7.38;100.00;103930.44;4881422;29;22722;-74
2021/12/18 06:39:32;;;;;;;43.85;15.90;;;;;;;7.43;100.00;103930.09;4879240;29;20047;-74
2021/12/18 06:41:58;;;;;;;37.47;15.23;;;;;;;7.45;100.00;103930.84;4885915;29;20058;-74
2021/12/18 06:44:23;;;;;;;37.00;12.88;;;;;;;7.48;100.00;103933.28;4874111;29;20515;-74
2021/12/18 06:46:49;;;;;;;28.40;9.88;;;;;;;7.51;100.00;103930.34;4887879;28;20035;-74
2021/12/18 06:49:14;;;;;;;30.23;11.02;;;;;;;7.53;100.00;103933.78;4865452;29;20155;-73
2021/12/18 06:51:40;;;;;;;25.25;10.55;;;;;;;7.57;100.00;103925.38;4860996;29;20052;-73
2021/12/18 06:54:05;;;;;;;25.58;9.80;;;;;;;7.56;100.00;103928.19;4888779;29;20039;-73
2021/12/18 06:56:31;;;;;;;32.50;9.73;;;;;;;7.58;100.00;103931.59;4871186;29;20065;-72
2021/12/18 06:58:56;;;;;;;29.98;9.57;;;;;;;7.63;100.00;103938.31;4887000;29;20138;-72
2021/12/18 07:01:22;;;;;;;21.83;9.52;;;;;;;7.61;100.00;103936.72;4882404;29;20561;-72
2021/12/18 07:03:47;;;;;;;24.02;8.90;;;;;;;7.65;100.00;103932.81;4862293;29;20051;-72
2021/12/18 07:06:13;;;;;;;22.08;9.70;;;;;;;7.61;100.00;103934.88;4891956;29;20032;-73
2021/12/18 07:08:38;;;;;;;23.60;10.13;;;;;;;7.71;100.00;103932.34;4875371;28;20958;-72
2021/12/18 07:11:03;;;;;;;28.85;10.07;;;;;;;7.60;100.00;103935.88;4878133;29;20038;-72
2021/12/18 07:13:29;;;;;;;24.75;9.65;;;;;;;7.65;100.00;103930.13;4883111;29;20043;-73
2021/12/18 07:15:54;;;;;;;23.73;10.30;;;;;;;7.61;100.00;103939.41;4879277;29;20622;-73
2021/12/18 07:18:20;;;;;;;25.77;9.80;;;;;;;7.58;100.00;103929.78;4887315;28;20067;-73
2021/12/18 07:20:45;;;;;;;27.33;9.60;;;;;;;7.59;100.00;103933.31;4869194;29;20086;-73
2021/12/18 07:23:11;;;;;;;28.48;9.80;;;;;;;7.63;100.00;103932.09;4887635;29;20380;-73
2021/12/18 07:25:36;;;;;;;26.20;9.50;;;;;;;7.67;100.00;103928.19;4878906;28;20063;-72
2021/12/18 07:28:02;;;;;;;23.40;9.10;;;;;;;7.67;100.00;103924.66;4879342;29;20075;-73
2021/12/18 07:30:28;;;;;;;26.40;10.40;;;;;;;7.69;100.00;103923.59;4869628;29;20043;-73
2021/12/18 07:32:53;;;;;;;30.63;9.43;;;;;;;7.72;100.00;103918.00;4840286;28;20583;-72
2021/12/18 07:35:19;;;;;;;19.30;9.73;;;;;;;7.69;100.00;103925.38;4886655;29;20682;-72
2021/12/18 07:37:44;;;;;;;30.88;9.80;;;;;;;7.65;100.00;103927.44;4879670;29;20110;-73
2021/12/18 07:40:11;;;;;;;23.25;8.55;;;;;;;7.66;100.00;103929.19;4864258;29;22707;-72
2021/12/18 07:42:37;;;;;;;20.27;7.88;;;;;;;7.71;100.00;103926.97;4873286;29;20031;-73
2021/12/18 07:45:04;;;;;;;21.10;8.60;;;;;;;7.73;100.00;103925.06;4876115;29;20051;-74
2021/12/18 07:47:29;;;;;;;26.65;8.60;;;;;;;7.72;100.00;103918.00;4874537;29;22393;-73
2021/12/18 07:49:55;;;;;;;27.50;8.77;;;;;;;7.71;100.00;103928.81;4865643;29;20063;-73
2021/12/18 07:52:21;;;;;;;21.95;8.18;;;;;;;7.76;100.00;103930.19;4879681;29;20752;-73
2021/12/18 07:54:47;;;;;;;28.88;9.18;;;;;;;7.81;100.00;103922.63;4871457;29;20150;-73
2021/12/18 07:57:13;;;;;;;20.92;8.43;;;;;;;7.81;100.00;103938.72;4866490;29;20139;-73
2021/12/18 07:59:38;;;;;;;20.50;8.23;;;;;;;7.87;100.00;103929.34;4868455;29;21135;-72
2021/12/18 08:02:05;;;;;;;24.38;8.27;;;;;;;7.85;100.00;103934.81;4879347;28;20466;-72
2021/12/18 08:04:32;;;;;;;21.50;8.68;;;;;;;7.87;100.00;103932.88;4874416;29;20055;-72
2021/12/18 08:06:57;;;;;;;21.33;7.93;;;;;;;7.86;100.00;103935.66;4887106;29;20039;-72
2021/12/18 08:09:23;;;;;;;16.75;7.07;;;;;;;7.88;100.00;103934.59;4855754;28;20059;-72
2021/12/18 08:11:48;;;;;;;23.98;7.20;;;;;;;7.91;100.00;103927.28;4886913;28;20054;-72
2021/12/18 08:14:13;;;;;;;23.73;7.68;;;;;;;7.93;100.00;103930.69;4880957;28;20035;-72
2021/12/18 08:16:39;;;;;;;23.92;6.72;;;;;;;7.98;100.00;103923.16;4875721;29;20051;-71
2021/12/18 08:19:04;;;;;;;15.23;6.50;;;;;;;7.99;100.00;103932.91;4886818;28;20042;-71
2021/12/18 08:21:30;;;;;;;16.35;6.00;;;;;;;7.98;100.00;103929.34;4869647;29;20058;-72
2021/12/18 08:23:55;;;;;;;22.98;6.70;;;;;;;7.99;100.00;103925.69;4866918;29;20119;-72
2021/12/18 08:26:20;;;;;;;15.32;5.72;;;;;;;8.05;100.00;103924.38;4861088;28;20032;-72
2021/12/18 08:28:46;;;;;;;17.25;5.75;;;;;;;8.11;100.00;103934.63;4858708;29;20166;-72
2021/12/18 08:31:11;;;;;;;26.33;6.03;;;;;;;8.09;100.00;103931.19;4886486;29;20050;-72
2021/12/18 08:33:37;;;;;;;17.10;5.22;;;;;;;8.07;100.00;103934.03;4869261;28;20082;-71
2021/12/18 08:36:03;;;;;;;19.88;5.57;;;;;;;8.04;100.00;103933.41;4870410;29;20031;-71
2021/12/18 08:38:28;;;;;;;22.00;5.53;;;;;;;8.10;100.00;103933.75;4883674;29;20114;-71
2021/12/18 08:40:54;;;;;;;24.48;5.57;;;;;;;8.13;100.00;103932.66;4876781;29;20047;-71
2021/12/18 08:43:20;;;;;;;13.45;4.72;;;;;;;8.10;100.00;103928.38;4890631;28;20043;-71
2021/12/18 08:45:45;;;;;;;14.07;4.53;;;;;;;8.16;100.00;103932.44;4872465;29;20792;-71
2021/12/18 08:48:11;;;;;;;19.48;4.90;;;;;;;8.17;100.00;103934.13;4890907;29;20094;-71
2021/12/18 08:50:36;;;;;;;15.80;3.72;;;;;;;8.17;100.00;103922.53;4892078;29;20058;-71
2021/12/18 08:53:02;;;;;;;11.63;3.53;;;;;;;8.11;100.00;103921.22;4874891;29;20595;-72
2021/12/18 08:55:28;;;;;;;14.55;3.40;;;;;;;8.23;100.00;103928.28;4899288;28;20023;-71
2021/12/18 08:57:54;;;;;;;9.55;2.88;;;;;;;8.21;100.00;103916.78;4876644;29;20055;-71
2021/12/18 09:00:22;;;;;;;10.93;3.50;;;;;;;8.21;100.00;103911.41;4883522;28;20041;-71
2021/12/18 09:02:51;;;;;;;15.95;4.03;;;;;;;8.19;100.00;103916.06;4867443;29;20038;-72
2021/12/18 09:05:16;;;;;;;14.00;3.88;;;;;;;8.21;100.00;103918.63;4863678;29;20162;-72
2021/12/18 09:07:42;;;;;;;15.13;3.15;;;;;;;8.26;100.00;103917.28;4889465;29;20031;-71
2021/12/18 09:10:08;;;;;;;14.00;3.80;;;;;;;8.29;100.00;103922.41;4865109;29;20059;-73
2021/12/18 09:12:33;;;;;;;13.95;4.05;;;;;;;8.34;100.00;103914.84;4873662;29;20050;-72
2021/12/18 09:14:59;;;;;;;20.05;4.18;;;;;;;8.39;100.00;103927.94;4872792;29;20055;-73
2021/12/18 09:17:25;;;;;;;16.38;3.92;;;;;;;8.39;100.00;103921.69;4859725;28;20054;-72
2021/12/18 09:19:51;;;;;;;15.18;3.70;;;;;;;8.42;100.00;103919.63;4887292;29;20081;-73
2021/12/18 09:22:17;;;;;;;9.10;3.10;;;;;;;8.48;100.00;103920.97;4873303;28;20047;-70
2021/12/18 09:24:42;;;;;;;11.40;3.05;;;;;;;8.39;100.00;103921.69;4887498;29;20118;-72
2021/12/18 09:27:08;;;;;;;16.10;3.28;;;;;;;8.53;100.00;103930.38;4886994;28;22459;-72
2021/12/18 09:29:33;;;;;;;20.63;3.47;;;;;;;8.53;100.00;103929.50;4846502;29;20090;-72
2021/12/18 09:31:59;;;;;;;18.02;3.70;;;;;;;8.58;100.00;103927.31;4888612;29;20655;-72
2021/12/18 09:34:27;;;;;;;9.95;3.30;;;;;;;8.58;100.00;103927.31;4871972;28;20056;-72
2021/12/18 09:36:53;;;;;;;11.25;3.00;;;;;;;8.57;100.00;103920.25;4883681;29;23736;-73
2021/12/18 09:39:18;;;;;;;13.75;3.35;;;;;;;8.62;100.00;103923.38;4882764;29;20264;-73
2021/12/18 09:41:47;;;;;;;12.55;3.50;;;;;;;8.60;100.00;103920.00;4870057;28;20085;-74
2021/12/18 09:44:12;;;;;;;14.77;3.22;;;;;;;8.66;100.00;103914.09;4870512;29;20031;-73
2021/12/18 09:46:37;;;;;;;13.30;3.10;;;;;;;8.67;100.00;103918.50;4868795;29;20055;-74
2021/12/18 09:49:03;;;;;;;19.00;4.10;;;;;;;8.72;100.00;103918.97;4869096;29;20143;-72
2021/12/18 09:51:29;;;;;;;15.93;3.60;;;;;;;8.76;100.00;103914.22;4885604;29;20039;-73
2021/12/18 09:53:55;;;;;;;21.38;4.13;;;;;;;8.79;100.00;103920.19;4874359;28;20051;-72
2021/12/18 09:56:23;;;;;;;10.70;3.10;;;;;;;8.77;100.00;103918.59;4889624;29;20030;-72
2021/12/18 09:58:48;;;;;;;15.23;3.85;;;;;;;8.81;100.00;103912.84;4858017;29;20059;-73
2021/12/18 10:01:15;;;;;;;22.50;4.22;;;;;;;8.81;100.00;103915.53;4871609;29;20043;-73
2021/12/18 10:03:49;;;;;;;14.25;3.75;;;;;;;8.84;100.00;103901.84;4886662;29;20081;-72
2021/12/18 10:06:37;;;;;;;11.85;3.90;;;;;;;8.78;100.00;103913.09;4878221;29;20633;-73
2021/12/18 10:09:05;;;;;;;14.68;4.03;;;;;;;8.77;100.00;103903.31;4886156;28;20041;-73
2021/12/18 10:11:31;;;;;;;12.43;3.97;;;;;;;8.75;100.00;103909.81;4871913;28;20055;-73
2021/12/18 10:14:02;;;;;;;16.20;4.47;;;;;;;8.83;100.00;103904.66;4868212;29;20035;-73
2021/12/18 10:16:29;;;;;;;14.60;4.47;;;;;;;8.91;100.00;103899.50;4879117;29;20055;-72
2021/12/18 10:18:56;;;;;;;12.77;4.05;;;;;;;8.92;100.00;103897.69;4860325;29;20050;-72
2021/12/18 10:21:24;;;;;;;18.85;4.57;;;;;;;8.93;100.00;103899.38;4867610;29;20035;-72
2021/12/18 10:23:52;;;;;;;20.42;5.35;;;;;;;8.92;100.00;103892.31;4874904;29;20051;-72
2021/12/18 10:26:37;;;;;;;18.70;5.20;;;;;;;8.95;100.00;103890.22;4888403;29;20130;-74
2021/12/18 10:29:05;;;;;;;16.52;5.38;;;;;;;8.96;100.00;103893.75;4868667;29;20043;-74
2021/12/18 10:31:37;;;;;;;13.23;4.90;;;;;;;8.96;100.00;103888.38;4884894;29;20039;-73
2021/12/18 10:34:18;;;;;;;15.07;5.57;;;;;;;8.98;100.00;103892.63;4853744;29;20392;-75
2021/12/18 10:37:10;;;;;;;13.68;5.78;;;;;;;8.99;100.00;103888.13;4878433;29;20939;-74
2021/12/18 10:39:38;;;;;;;15.15;5.78;;;;;;;9.03;100.00;103887.72;4890487;29;20116;-74
2021/12/18 10:42:25;;;;;;;14.88;5.53;;;;;;;9.02;100.00;103885.16;4875587;28;20053;-74
2021/12/18 10:45:18;;;;;;;12.48;4.88;;;;;;;8.97;100.00;103880.16;4871340;29;20039;-74
2021/12/18 10:47:48;;;;;;;17.25;5.85;;;;;;;9.00;100.00;103868.31;4873897;28;20192;-75
2021/12/18 10:50:19;;;;;;;11.95;5.13;;;;;;;9.10;100.00;103880.00;4873928;29;20059;-74
2021/12/18 10:52:45;;;;;;;14.95;5.07;;;;;;;9.13;100.00;103860.91;4869424;29;20086;-75
2021/12/18 10:55:10;;;;;;;12.88;4.85;;;;;;;9.16;100.00;103854.41;4878655;29;22951;-73
2021/12/18 10:57:36;;;;;;;18.90;5.13;;;;;;;9.18;100.00;103856.00;4888000;28;20039;-73
2021/12/18 11:00:03;;;;;;;11.55;4.68;;;;;;;9.18;100.00;103861.38;4848536;29;20055;-73
2021/12/18 11:02:28;;;;;;;15.88;4.50;;;;;;;9.16;100.00;103857.09;4887662;29;20067;-73
2021/12/18 11:05:17;;;;;;;9.95;4.90;;;;;;;9.26;100.00;103853.50;4884432;28;20061;-74
2021/12/18 11:07:46;;;;;;;12.35;3.88;;;;;;;9.29;100.00;103853.25;4886529;28;20162;-74
2021/12/18 11:10:41;;;;;;;7.97;3.03;;;;;;;9.33;100.00;103849.28;4897586;29;20582;-75
2021/12/18 11:15:51;;;;;;;10.15;3.85;;;;;;;9.26;100.00;103853.50;4896945;29;20038;-73
2021/12/18 11:18:18;;;;;;;18.55;3.88;;;;;;;9.22;100.00;103857.44;4888585;28;20050;-73
2021/12/18 11:20:47;;;;;;;18.02;3.67;;;;;;;9.24;100.00;103844.72;4890590;29;20047;-73
2021/12/18 11:23:13;;;;;;;13.82;4.05;;;;;;;9.23;100.00;103853.78;4893957;28;20038;-73
2021/12/18 11:25:41;;;;;;;6.78;3.10;;;;;;;9.37;100.00;103849.03;4882528;29;20176;-73
2021/12/18 11:28:07;;;;;;;10.60;3.25;;;;;;;9.42;100.00;103846.81;4890034;29;20039;-73
2021/12/18 11:30:33;;;;;;;11.25;4.20;;;;;;;9.41;100.00;103845.13;4874446;28;20055;-73
2021/12/18 11:32:59;;;;;;;11.93;3.33;;;;;;;9.35;100.00;103845.66;4890220;29;20236;-73
2021/12/18 11:35:27;;;;;;;12.90;3.67;;;;;;;9.32;100.00;103831.47;4867676;29;20550;-73
2021/12/18 11:38:00;;;;;;;11.18;3.35;;;;;;;9.34;100.00;103831.34;4880426;28;20059;-74
2021/12/18 11:40:30;;;;;;;13.73;3.72;;;;;;;9.30;100.00;103843.31;4890038;29;20031;-73
2021/12/18 11:42:55;;;;;;;16.02;4.18;;;;;;;9.33;100.00;103838.53;4860149;29;20058;-73
2021/12/18 11:45:34;;;;;;;10.48;3.80;;;;;;;9.41;100.00;103828.97;4887861;29;20027;-74
2021/12/18 11:48:00;;;;;;;11.85;3.60;;;;;;;9.42;100.00;103831.53;4859192;29;20043;-74
2021/12/18 11:50:28;;;;;;;15.85;3.22;;;;;;;9.33;100.00;103822.41;4888828;29;20177;-75
2021/12/18 11:53:16;;;;;;;11.98;3.38;;;;;;;9.43;100.00;103824.31;4889729;28;20046;-72
2021/12/18 11:55:50;;;;;;;8.88;2.60;;;;;;;9.48;100.00;103816.69;4877085;28;20043;-73
2021/12/18 11:58:18;;;;;;;9.50;2.60;;;;;;;9.45;100.00;103808.91;4886923;28;20058;-73
2021/12/18 12:00:55;;;;;;;11.68;2.42;;;;;;;9.53;100.00;103817.13;4867519;29;20093;-73